createdAt,value
2018-07-12T11:17:58.123Z,8.18
2018-07-12T11:20:26.664Z,9.98
2018-07-12T11:22:55.205Z,8.38
2018-07-12T11:25:23.728Z,8.10
2018-07-12T11:27:52.243Z,9.95
2018-07-12T11:30:20.853Z,8.25
2018-07-12T11:32:49.394Z,7.72
2018-07-12T11:35:17.927Z,7.35
2018-07-12T11:37:46.112Z,6.28
2018-07-12T11:40:14.616Z,7.62
2018-07-12T11:42:43.134Z,6.53
2018-07-12T11:45:11.659Z,6.45
2018-07-12T11:47:40.153Z,7.58
2018-07-12T11:50:09.020Z,6.90
2018-07-12T11:52:37.644Z,7.85
2018-07-12T11:55:06.343Z,6.95
2018-07-12T11:57:34.901Z,7.62
2018-07-12T12:00:03.524Z,6.67
2018-07-12T12:02:32.030Z,7.78
2018-07-12T12:05:00.560Z,6.25
2018-07-12T12:07:29.153Z,5.85
2018-07-12T12:09:57.664Z,5.97
2018-07-12T12:12:26.225Z,6.72
2018-07-12T12:14:54.719Z,6.15
2018-07-12T12:17:23.326Z,5.33
2018-07-12T12:19:51.872Z,8.43
2018-07-12T12:22:20.388Z,7.15
2018-07-12T12:24:48.915Z,6.85
2018-07-12T12:27:17.415Z,5.60
2018-07-12T12:29:45.940Z,6.47
2018-07-12T12:32:14.215Z,5.35
2018-07-12T12:34:42.791Z,6.53
2018-07-12T12:37:11.292Z,5.83
2018-07-12T12:39:39.810Z,6.70
2018-07-12T12:42:08.331Z,9.00
2018-07-12T12:44:37.070Z,8.05
2018-07-12T12:47:05.692Z,7.10
2018-07-12T12:49:34.192Z,5.83
2018-07-12T12:52:02.740Z,6.83
2018-07-12T12:54:31.409Z,6.85
2018-07-12T12:56:59.904Z,7.65
2018-07-12T12:59:28.475Z,7.00
2018-07-12T13:01:57.096Z,9.25
2018-07-12T13:04:25.615Z,10.68
2018-07-12T13:06:54.148Z,6.50
2018-07-12T13:09:22.647Z,6.40
2018-07-12T13:11:51.178Z,6.00
2018-07-12T13:14:19.663Z,6.72
2018-07-12T13:16:48.217Z,9.30
2018-07-12T13:19:16.751Z,5.33
2018-07-12T13:21:45.299Z,6.10
2018-07-12T13:24:13.798Z,5.75
2018-07-12T13:26:42.276Z,5.53
2018-07-12T13:29:10.873Z,5.47
2018-07-12T13:31:39.594Z,5.20
2018-07-12T13:34:08.096Z,5.90
2018-07-12T13:36:36.632Z,6.75
2018-07-12T13:39:07.024Z,7.72
2018-07-12T13:41:35.565Z,6.80
2018-07-12T13:44:15.913Z,6.78
2018-07-12T13:46:44.827Z,6.45
2018-07-12T13:49:13.585Z,5.90
2018-07-12T13:51:42.238Z,5.75
2018-07-12T13:54:10.791Z,8.45
2018-07-12T13:56:39.794Z,5.30
2018-07-12T13:59:08.502Z,6.50
2018-07-12T14:01:37.018Z,6.87
2018-07-12T14:04:06.509Z,10.15
2018-07-12T14:06:35.197Z,8.68
2018-07-12T14:09:04.790Z,5.95
2018-07-12T14:11:33.345Z,9.05
2018-07-12T14:14:02.016Z,5.40
2018-07-12T14:16:30.632Z,6.87
2018-07-12T14:18:59.181Z,5.70
2018-07-12T14:21:27.875Z,5.75
2018-07-12T14:23:56.434Z,6.40
2018-07-12T14:26:25.312Z,5.65
2018-07-12T14:28:53.845Z,5.92
2018-07-12T14:31:22.721Z,6.42
2018-07-12T14:33:51.106Z,5.20
2018-07-12T14:36:19.611Z,6.80
2018-07-12T14:38:48.143Z,5.75
2018-07-12T14:41:16.900Z,8.08
2018-07-12T14:43:45.539Z,5.75
2018-07-12T14:46:14.071Z,5.47
2018-07-12T14:48:42.623Z,5.53
2018-07-12T14:51:11.128Z,4.85
2018-07-12T14:53:39.807Z,6.03
2018-07-12T14:56:08.376Z,5.53
2018-07-12T14:58:36.983Z,5.42
2018-07-12T15:01:05.513Z,9.15
2018-07-12T15:03:33.766Z,5.87
2018-07-12T15:06:02.400Z,5.60
2018-07-12T15:08:31.182Z,5.22
2018-07-12T15:10:59.890Z,5.12
2018-07-12T15:13:28.427Z,5.25
2018-07-12T15:15:57.073Z,7.28
2018-07-12T15:18:25.574Z,6.65
2018-07-12T15:20:54.119Z,6.83
2018-07-12T15:23:22.619Z,8.78
2018-07-12T15:25:51.171Z,6.30
2018-07-12T15:28:19.708Z,9.48
2018-07-12T15:30:48.236Z,11.80
2018-07-12T15:33:16.788Z,10.23
2018-07-12T15:35:45.449Z,14.00
2018-07-12T15:38:13.945Z,15.40
2018-07-12T15:40:42.590Z,12.18
2018-07-12T15:43:11.083Z,12.23
2018-07-12T15:45:39.583Z,9.93
2018-07-12T15:48:07.771Z,10.93
2018-07-12T15:50:36.304Z,9.85
2018-07-12T15:53:04.935Z,8.88
2018-07-12T15:55:33.672Z,13.78
2018-07-12T15:58:02.155Z,11.95
2018-07-12T16:00:30.670Z,8.95
2018-07-12T16:02:59.294Z,12.10
2018-07-12T16:05:27.836Z,10.32
2018-07-12T16:07:56.391Z,11.28
2018-07-12T16:10:24.880Z,8.30
2018-07-12T16:12:53.440Z,8.38
2018-07-12T16:15:21.967Z,10.85
2018-07-12T16:17:50.484Z,11.53
2018-07-12T16:20:19.017Z,11.38
2018-07-12T16:22:47.520Z,7.47
2018-07-12T16:25:16.076Z,10.53
2018-07-12T16:27:44.651Z,11.35
2018-07-12T16:30:13.360Z,11.88
2018-07-12T16:32:41.964Z,9.20
2018-07-12T16:35:10.579Z,10.63
2018-07-12T16:37:39.111Z,9.20
2018-07-12T16:40:07.613Z,10.50
2018-07-12T16:42:36.127Z,12.85
2018-07-12T16:45:04.635Z,13.48
2018-07-12T16:47:33.147Z,9.88
2018-07-12T16:50:01.648Z,12.58
2018-07-12T16:52:30.151Z,7.42
2018-07-12T16:54:58.684Z,9.38
2018-07-12T16:57:27.173Z,10.82
2018-07-12T16:59:55.691Z,10.53
2018-07-12T17:02:24.183Z,10.30
2018-07-12T17:04:52.692Z,11.60
2018-07-12T17:07:21.612Z,12.47
2018-07-12T17:09:50.052Z,9.70
2018-07-12T17:12:18.683Z,10.10
2018-07-12T17:14:47.241Z,11.85
2018-07-12T17:17:15.736Z,11.40
2018-07-12T17:19:44.301Z,10.90
2018-07-12T17:22:12.799Z,11.20
2018-07-12T17:24:41.283Z,11.35
2018-07-12T17:27:09.839Z,11.68
2018-07-12T17:29:38.335Z,8.05
2018-07-12T17:32:06.842Z,12.68
2018-07-12T17:34:35.361Z,10.78
2018-07-12T17:37:03.851Z,9.73
2018-07-12T17:39:32.388Z,10.30
2018-07-12T17:42:00.883Z,7.80
2018-07-12T17:44:29.482Z,8.70
2018-07-12T17:46:58.022Z,8.98
2018-07-12T17:49:26.582Z,6.15
2018-07-12T17:51:55.155Z,7.87
2018-07-12T17:54:23.798Z,8.18
2018-07-12T17:56:52.286Z,6.42
2018-07-12T17:59:20.846Z,7.22
2018-07-12T18:01:49.376Z,9.30
2018-07-12T18:04:17.582Z,9.40
2018-07-12T18:06:46.104Z,8.60
2018-07-12T18:09:14.849Z,10.50
2018-07-12T18:11:43.330Z,8.45
2018-07-12T18:14:11.910Z,6.20
2018-07-12T18:16:40.397Z,7.33
2018-07-12T18:19:08.886Z,7.50
2018-07-12T18:21:37.391Z,7.30
2018-07-12T18:24:05.910Z,7.58
2018-07-12T18:26:34.400Z,8.25
2018-07-12T18:29:03.096Z,7.75
2018-07-12T18:31:31.591Z,5.80
2018-07-12T18:34:00.135Z,6.58
2018-07-12T18:36:28.915Z,5.90
2018-07-12T18:38:57.406Z,6.72
2018-07-12T18:41:25.947Z,7.97
2018-07-12T18:43:54.462Z,7.28
2018-07-12T18:46:22.958Z,6.10
2018-07-12T18:48:51.439Z,6.10
2018-07-12T18:51:20.088Z,6.08
2018-07-12T18:53:48.686Z,6.10
2018-07-12T18:56:17.179Z,6.78
2018-07-12T18:58:45.694Z,6.05
2018-07-12T19:01:14.191Z,8.30
2018-07-12T19:03:42.742Z,6.30
2018-07-12T19:06:11.206Z,6.17
2018-07-12T19:08:39.701Z,5.80
2018-07-12T19:11:08.231Z,7.40
2018-07-12T19:13:36.726Z,8.73
2018-07-12T19:16:05.243Z,6.62
2018-07-12T19:18:33.727Z,5.30
2018-07-12T19:21:02.277Z,7.12
2018-07-12T19:23:30.754Z,5.75
2018-07-12T19:25:59.348Z,5.90
2018-07-12T19:28:27.874Z,5.90
2018-07-12T19:30:56.383Z,6.95
2018-07-12T19:33:24.948Z,6.83
2018-07-12T19:35:53.458Z,5.95
2018-07-12T19:38:22.071Z,6.10
2018-07-12T19:40:50.583Z,6.17
2018-07-12T19:43:19.087Z,6.30
2018-07-12T19:45:47.571Z,6.85
2018-07-12T19:48:16.078Z,6.12
2018-07-12T19:50:44.727Z,6.65
2018-07-12T19:53:13.226Z,5.58
2018-07-12T19:55:41.746Z,5.67
2018-07-12T19:58:10.266Z,5.58
2018-07-12T20:00:38.808Z,5.92
